Corpus Christi International Airport
KCRP : now visible

Airfield :











YOU CAN JOIN US ON...

 
LOGIN :

Register | Disclaimer

   EN    FR    IT 

 









Legend :    VFR   Marginal VFR   IFR   Intensive IFR   Very Intensive IFR
Visi :
Ceiling :
>= 8 km
>= 3000ft
5 to 8 km
1000 to 3000 ft
1500m to 5 km
500 to 1000 ft
800 to 1500m
200 to 500 ft
< 800m
< 200 ft
Symbols :   Thunderstorms  Fog  Heavy snow  Heavy precipitations  Wind > 20 kt






- Airport Elevation : 44 ft
- IATA code : CRP


KCRP - Corpus Christi International

CURRENT METAR :
  • 281451Z 17012KT 10SM FEW012 FEW017 SCT220 BKN250 28/24 A2989 RMK AO2 SLP119 T02780244 52015

EXPIRED METARs :
  • 281351Z 18009KT 10SM FEW010 FEW016 FEW180 BKN250 27/24 A2988 RMK AO2 SLP116 T02670239
  • 281251Z 16011KT 10SM FEW017 FEW065 FEW180 BKN250 26/23 A2985 RMK AO2 SLP106 T02560233

TAF KCRP
Valid from the 28 at 12:00 until the 29 at 12:00 UTC


281129Z 2812/2912 17011KT P6SM FEW020 BKN250
FM281500 16016KT P6SM SCT030 SCT250
FM290100 09010KT P6SM SCT020 BKN250
FM290800 03010KT P6SM SCT015 BKN150
KZHU FIR / North America



MET'MAP, your aeronautical weather chart ! - Copyright ORBIFLY December 2007 - Disclaimer

ORBIFLY MET'MAP TEAM :

Programming & Development : Alexandra Zaïnal
Concept & original design : Baudouin d'Aumeries
Assistance for programming : Marc-Olivier Méhu
Technical & hardware support : Manuel Goepfert

Contact : metmap@orbifly.com




SOURCES & CREDITS :

   NOAA       Earth
Advisory